Portada
METAR-TAF:

METAR-TAF

Aeroports :

Forrest, Austràlia

latitud: 30-50-18S, longitud: 128-06-54E, altitud: 156 m

Observació

L'informe es va fer fa 18 minuts, a les 14:00 UTC
Vent 10 kt del Est/Sud-Est
Temperatura 15°C
Humitat 88%
Pressió 1022 hPa
Visibilitat 10 km o més

METAR: YFRT 071400Z AUTO 11010KT 9999 // NCD 15/13 Q1022 RF00.0/000.0

Hora: 22:18 (14:18 UTC)

Pronòstic

L'informe es va fer fa 1 hora i 32 minuts, a les 12:46 UTC
Pronòstic vàlid del 07 a les 14 UTC al 08 a les 02 UTC
Vent 12 kt del Est/Sud-Est
Visibilitat 10 km o més
sense núvols per sota de 1500 mi sense presència de cumulonimbus.
A partir de les 07 a les 1600 UTC
Vent 10 kt del Est
Visibilitat 10 km o més
Cel ennuvolat a una alçada de 1000 ft
A partir de les 08 a les 0000 UTC
Vent 13 kt del Est
Visibilitat 10 km o més
sense núvols per sota de 1500 mi sense presència de cumulonimbus.

TAF: YFRT 071246Z 0714/0802 11012KT CAVOK FM071600 10010KT 9999 BKN010 FM080000 09013KT CAVOK

Observacions i pronòstics meteorològics de més de 4000 aeroports (METAR i TAF).

Les estacions disponibles són els punts grocs i vermells al mapa.

Posi el ratolí al punt desitjat per veure el nom de l'estació.

Feu clic per veure les observacions i els pronòstics meteorològics.

Per canviar el mapa: feu clic els botons verds amb una creu de color negre per apropar; al botó verd amb un guió per allunyar la imatge; o en les fletxes verdes per a mapes adjacents.


METAR-TAF: